Time,TemperatureF,DewpointF,PressureIn,WindDirection,WindDirectionDegrees,WindSpeedMPH,WindSpeedGustMPH,Humidity,HourlyPrecipIn,Conditions,Clouds,dailyrainin,SoftwareType,DateUTC
2013-06-24 00:02:00,75.0,72.0,30.30,SSW,202,1.0,2.0,90,0.00,,,1.07,meteohub,2013-06-24 04:02:00,
2013-06-24 00:12:00,73.9,70.9,30.30,SSW,202,1.0,2.0,90,0.00,,,0.00,meteohub,2013-06-24 04:12:00,
2013-06-24 00:22:00,73.9,71.1,30.30,SW,225,2.0,2.0,91,0.00,,,0.00,meteohub,2013-06-24 04:22:00,
2013-06-24 00:32:00,73.9,71.1,30.30,SW,225,1.0,2.0,91,0.00,,,0.00,meteohub,2013-06-24 04:32:00,
2013-06-24 00:42:00,73.9,71.1,30.30,SW,225,2.0,2.0,91,0.00,,,0.00,meteohub,2013-06-24 04:42:00,
2013-06-24 00:52:00,73.9,71.4,30.30,South,180,1.0,2.0,92,0.00,,,0.00,meteohub,2013-06-24 04:52:00,
2013-06-24 01:02:00,73.9,71.4,30.30,SSW,202,2.0,2.0,92,0.00,,,0.00,meteohub,2013-06-24 05:02:00,
2013-06-24 01:12:00,73.9,71.4,30.30,South,180,1.0,2.0,92,0.00,,,0.00,meteohub,2013-06-24 05:12:00,
2013-06-24 01:22:00,73.9,71.4,30.29,SW,225,1.0,4.0,92,0.00,,,0.00,meteohub,2013-06-24 05:22:00,
2013-06-24 01:32:00,73.9,71.8,30.29,SW,225,0.0,2.0,93,0.00,,,0.00,meteohub,2013-06-24 05:32:00,
2013-06-24 01:42:00,73.0,70.9,30.29,SW,225,0.0,2.0,93,0.00,,,0.00,meteohub,2013-06-24 05:42:00,
2013-06-24 01:52:00,73.0,71.2,30.29,SW,225,0.0,2.0,94,0.00,,,0.00,meteohub,2013-06-24 05:52:00,
2013-06-24 02:02:00,73.0,71.6,30.28,SW,225,1.0,2.0,95,0.00,,,0.00,meteohub,2013-06-24 06:02:00,
2013-06-24 02:12:00,73.0,71.6,30.28,SW,225,1.0,2.0,95,0.00,,,0.00,meteohub,2013-06-24 06:12:00,
2013-06-24 02:22:00,73.0,71.8,30.28,SW,225,1.0,2.0,96,0.00,,,0.00,meteohub,2013-06-24 06:22:00,
2013-06-24 02:32:00,73.0,71.8,30.28,South,180,2.0,2.0,96,0.00,,,0.00,meteohub,2013-06-24 06:32:00,
2013-06-24 02:42:00,73.0,72.1,30.28,South,180,0.0,2.0,97,0.00,,,0.00,meteohub,2013-06-24 06:42:00,
2013-06-24 02:55:00,73.0,72.1,30.28,SSW,202,2.0,2.0,97,0.00,,,0.00,meteohub,2013-06-24 06:55:00,
2013-06-24 03:02:00,72.0,71.4,30.28,SW,225,2.0,2.0,98,0.00,,,0.00,meteohub,2013-06-24 07:02:00,
2013-06-24 03:13:00,72.0,71.4,30.28,SW,225,0.0,2.0,98,0.00,,,0.00,meteohub,2013-06-24 07:13:00,
2013-06-24 03:22:00,72.0,71.6,30.27,SW,225,1.0,2.0,99,0.00,,,0.00,meteohub,2013-06-24 07:22:00,
2013-06-24 03:32:00,72.0,71.6,30.28,SW,225,1.0,2.0,99,0.00,,,0.00,meteohub,2013-06-24 07:32:00,
2013-06-24 03:42:00,72.0,71.6,30.28,SW,225,0.0,2.0,99,0.00,,,0.00,meteohub,2013-06-24 07:42:00,
2013-06-24 03:52:00,71.1,70.7,30.28,SW,225,0.0,2.0,99,0.00,,,0.00,meteohub,2013-06-24 07:52:00,
2013-06-24 04:02:00,71.1,70.7,30.28,SW,225,2.0,2.0,99,0.00,,,0.00,meteohub,2013-06-24 08:02:00,
2013-06-24 04:12:00,71.1,70.7,30.28,South,180,1.0,2.0,99,0.00,,,0.00,meteohub,2013-06-24 08:12:00,
2013-06-24 04:22:00,71.1,70.7,30.28,South,180,0.0,2.0,99,0.00,,,0.00,meteohub,2013-06-24 08:22:00,
2013-06-24 04:32:00,71.1,70.7,30.28,South,180,0.0,0.0,99,0.00,,,0.00,meteohub,2013-06-24 08:32:00,
2013-06-24 04:42:00,71.1,70.7,30.28,South,180,0.0,0.0,99,0.00,,,0.00,meteohub,2013-06-24 08:42:00,
2013-06-24 04:52:00,71.1,70.7,30.28,South,180,1.0,1.0,99,0.00,,,0.00,meteohub,2013-06-24 08:52:00,
2013-06-24 05:02:00,70.0,69.6,30.28,South,180,0.0,2.0,99,0.00,,,0.00,meteohub,2013-06-24 09:02:00,
2013-06-24 05:12:00,70.0,69.6,30.28,South,180,0.0,2.0,99,0.00,,,0.00,meteohub,2013-06-24 09:12:00,
2013-06-24 05:22:00,70.0,69.6,30.27,South,180,1.0,2.0,99,0.00,,,0.00,meteohub,2013-06-24 09:22:00,
2013-06-24 05:32:00,70.0,69.6,30.27,South,180,0.0,2.0,99,0.00,,,0.00,meteohub,2013-06-24 09:32:00,
2013-06-24 05:45:00,70.0,69.6,30.27,South,180,0.0,1.0,99,0.00,,,0.00,meteohub,2013-06-24 09:45:00,
2013-06-24 05:52:00,70.0,69.6,30.28,South,180,0.0,0.0,99,0.00,,,0.00,meteohub,2013-06-24 09:52:00,
2013-06-24 06:02:00,70.0,69.6,30.28,South,180,0.0,0.0,99,0.00,,,0.00,meteohub,2013-06-24 10:02:00,
2013-06-24 06:12:00,70.0,69.6,30.28,South,180,0.0,0.0,99,0.00,,,0.00,meteohub,2013-06-24 10:12:00,
2013-06-24 06:22:00,70.0,69.6,30.28,South,180,0.0,0.0,99,0.00,,,0.00,meteohub,2013-06-24 10:22:00,
2013-06-24 06:32:00,70.0,69.6,30.28,South,180,1.0,2.0,99,0.00,,,0.00,meteohub,2013-06-24 10:32:00,
2013-06-24 06:45:00,70.0,69.6,30.28,South,180,0.0,2.0,99,0.00,,,0.00,meteohub,2013-06-24 10:45:00,
2013-06-24 06:52:00,70.0,69.6,30.29,South,180,1.0,2.0,99,0.00,,,0.00,meteohub,2013-06-24 10:52:00,
2013-06-24 07:02:00,71.1,70.7,30.29,South,180,2.0,2.0,99,0.00,,,0.00,meteohub,2013-06-24 11:02:00,
2013-06-24 07:12:00,71.1,70.7,30.29,SSW,202,1.0,3.0,99,0.00,,,0.00,meteohub,2013-06-24 11:12:00,
2013-06-24 07:22:00,71.1,70.7,30.29,SSW,202,2.0,3.0,99,0.00,,,0.00,meteohub,2013-06-24 11:22:00,
2013-06-24 07:35:00,71.1,70.7,30.29,SW,225,1.0,2.0,99,0.00,,,0.00,meteohub,2013-06-24 11:35:00,
2013-06-24 07:45:00,72.0,71.6,30.30,South,180,1.0,2.0,99,0.00,,,0.00,meteohub,2013-06-24 11:45:00,
2013-06-24 07:52:00,73.0,72.7,30.30,NW,315,0.0,2.0,99,0.00,,,0.00,meteohub,2013-06-24 11:52:00,
2013-06-24 08:02:00,73.0,72.7,30.30,South,180,1.0,2.0,99,0.00,,,0.00,meteohub,2013-06-24 12:02:00,
2013-06-24 08:15:00,73.9,72.5,30.31,SW,225,2.0,2.0,95,0.00,,,0.00,meteohub,2013-06-24 12:15:00,
2013-06-24 08:22:00,75.0,72.1,30.31,SSW,202,0.0,2.0,91,0.00,,,0.00,meteohub,2013-06-24 12:22:00,
2013-06-24 08:32:00,77.0,73.2,30.32,NW,315,0.0,2.0,88,0.00,,,0.00,meteohub,2013-06-24 12:32:00,
2013-06-24 08:42:00,78.1,72.1,30.33,SSW,202,0.0,3.0,82,0.00,,,0.00,meteohub,2013-06-24 12:42:00,
2013-06-24 08:52:00,80.1,73.0,30.33,SSW,202,0.0,3.0,79,0.00,,,0.00,meteohub,2013-06-24 12:52:00,
2013-06-24 09:02:00,81.0,71.4,30.34,SW,225,1.0,2.0,73,0.00,,,0.00,meteohub,2013-06-24 13:02:00,
2013-06-24 09:15:00,82.0,72.1,30.35,SSW,202,0.0,2.0,72,0.00,,,0.00,meteohub,2013-06-24 13:15:00,
2013-06-24 09:22:00,82.0,72.1,30.35,NW,315,0.0,2.0,72,0.00,,,0.00,meteohub,2013-06-24 13:22:00,
2013-06-24 09:32:00,82.9,72.1,30.35,West,270,0.0,0.0,70,0.00,,,0.00,meteohub,2013-06-24 13:32:00,
2013-06-24 09:42:00,82.0,71.8,30.35,SW,225,0.0,2.0,71,0.00,,,0.00,meteohub,2013-06-24 13:42:00,
2013-06-24 09:52:00,82.0,72.5,30.35,SW,225,0.0,2.0,73,0.00,,,0.00,meteohub,2013-06-24 13:52:00,
2013-06-24 10:02:00,82.0,72.5,30.34,West,270,0.0,2.0,73,0.00,,,0.00,meteohub,2013-06-24 14:02:00,
2013-06-24 10:12:00,84.0,72.7,30.35,North,0,0.0,4.0,69,0.00,,,0.00,meteohub,2013-06-24 14:12:00,
2013-06-24 10:22:00,84.0,70.5,30.36,SW,225,0.0,3.0,64,0.00,,,0.00,meteohub,2013-06-24 14:22:00,
2013-06-24 10:32:00,84.9,70.9,30.36,South,180,0.0,3.0,63,0.00,,,0.00,meteohub,2013-06-24 14:32:00,
2013-06-24 10:43:00,84.9,69.4,30.36,South,180,2.0,2.0,60,0.00,,,0.00,meteohub,2013-06-24 14:43:00,
2013-06-24 10:52:00,84.9,70.9,30.36,SE,135,0.0,2.0,63,0.00,,,0.00,meteohub,2013-06-24 14:52:00,
2013-06-24 11:02:00,84.0,69.6,30.36,NNW,337,0.0,4.0,62,0.00,,,0.00,meteohub,2013-06-24 15:02:00,
2013-06-24 11:12:00,84.9,70.0,30.36,West,270,0.0,4.0,61,0.00,,,0.00,meteohub,2013-06-24 15:12:00,
2013-06-24 11:22:00,84.9,69.4,30.36,SE,135,1.0,4.0,60,0.00,,,0.00,meteohub,2013-06-24 15:22:00,
2013-06-24 11:32:00,86.0,70.5,30.36,NW,315,0.0,4.0,60,0.00,,,0.00,meteohub,2013-06-24 15:32:00,
2013-06-24 11:42:00,87.1,71.1,30.37,NNW,337,1.0,2.0,59,0.00,,,0.00,meteohub,2013-06-24 15:42:00,
2013-06-24 11:52:00,87.1,71.4,30.37,West,270,1.0,4.0,60,0.00,,,0.00,meteohub,2013-06-24 15:52:00,
2013-06-24 12:02:00,89.1,68.0,30.37,North,0,4.0,4.0,50,0.00,,,0.00,meteohub,2013-06-24 16:02:00,
2013-06-24 12:12:00,88.0,66.9,30.37,North,0,1.0,7.0,50,0.00,,,0.00,meteohub,2013-06-24 16:12:00,
2013-06-24 12:22:00,87.1,68.4,30.36,NNW,337,2.0,5.0,54,0.00,,,0.00,meteohub,2013-06-24 16:22:00,
2013-06-24 12:32:00,86.0,68.5,30.36,North,0,1.0,5.0,56,0.00,,,0.00,meteohub,2013-06-24 16:32:00,
2013-06-24 12:42:00,87.1,67.8,30.36,North,0,0.0,5.0,53,0.00,,,0.00,meteohub,2013-06-24 16:42:00,
2013-06-24 12:52:00,87.1,69.4,30.36,NW,315,2.0,6.0,56,0.00,,,0.00,meteohub,2013-06-24 16:52:00,
2013-06-24 13:02:00,89.1,70.2,30.36,NNW,337,1.0,3.0,54,0.00,,,0.00,meteohub,2013-06-24 17:02:00,
2013-06-24 13:12:00,89.1,69.6,30.36,South,180,0.0,3.0,53,0.00,,,0.00,meteohub,2013-06-24 17:12:00,
2013-06-24 13:22:00,89.1,68.5,30.35,West,270,1.0,6.0,51,0.00,,,0.00,meteohub,2013-06-24 17:22:00,
2013-06-24 13:32:00,90.0,65.8,30.34,West,270,2.0,6.0,45,0.00,,,0.00,meteohub,2013-06-24 17:32:00,
2013-06-24 13:42:00,90.0,65.1,30.34,North,0,2.0,4.0,44,0.00,,,0.00,meteohub,2013-06-24 17:42:00,
2013-06-24 13:55:00,90.0,65.8,30.34,NW,315,2.0,4.0,45,0.00,,,0.00,meteohub,2013-06-24 17:55:00,
2013-06-24 14:02:00,91.0,65.5,30.33,SSW,202,0.0,4.0,43,0.00,,,0.00,meteohub,2013-06-24 18:02:00,
2013-06-24 14:12:00,93.0,63.7,30.32,SSW,202,1.0,4.0,38,0.00,,,0.00,meteohub,2013-06-24 18:12:00,
2013-06-24 14:22:00,91.9,64.2,30.33,NW,315,0.0,4.0,40,0.00,,,0.00,meteohub,2013-06-24 18:22:00,
2013-06-24 14:32:00,91.9,65.5,30.33,South,180,0.0,4.0,42,0.00,,,0.00,meteohub,2013-06-24 18:32:00,
2013-06-24 14:42:00,91.9,64.9,30.33,South,180,1.0,4.0,41,0.00,,,0.00,meteohub,2013-06-24 18:42:00,
2013-06-24 14:52:00,91.0,65.5,30.32,NE,45,0.0,2.0,43,0.00,,,0.00,meteohub,2013-06-24 18:52:00,
2013-06-24 15:05:00,90.0,66.4,30.31,SSE,157,0.0,2.0,46,0.00,,,0.00,meteohub,2013-06-24 19:05:00,
2013-06-24 15:12:00,88.0,65.8,30.30,SSW,202,1.0,2.0,48,0.00,,,0.00,meteohub,2013-06-24 19:12:00,
2013-06-24 15:22:00,87.1,66.2,30.30,SW,225,0.0,2.0,50,0.00,,,0.00,meteohub,2013-06-24 19:22:00,
2013-06-24 15:32:00,86.0,65.8,30.29,SSW,202,1.0,4.0,51,0.00,,,0.00,meteohub,2013-06-24 19:32:00,
2013-06-24 15:42:00,86.0,67.5,30.29,South,180,2.0,7.0,54,0.00,,,0.00,meteohub,2013-06-24 19:42:00,
2013-06-24 15:52:00,84.9,66.9,30.29,South,180,2.0,7.0,55,0.00,,,0.00,meteohub,2013-06-24 19:52:00,
2013-06-24 16:02:00,84.0,70.0,30.29,South,180,0.0,2.0,63,0.00,,,0.00,meteohub,2013-06-24 20:02:00,
2013-06-24 16:12:00,82.0,69.6,30.29,SE,135,0.0,2.0,66,0.00,,,0.00,meteohub,2013-06-24 20:12:00,
2013-06-24 16:22:00,82.0,70.3,30.28,North,0,0.0,3.0,68,0.00,,,0.00,meteohub,2013-06-24 20:22:00,
2013-06-24 16:32:00,81.0,68.9,30.28,West,270,2.0,4.0,67,0.00,,,0.00,meteohub,2013-06-24 20:32:00,
2013-06-24 16:42:00,80.1,68.2,30.31,NW,315,1.0,13.0,67,0.00,,,0.00,meteohub,2013-06-24 20:42:00,
2013-06-24 16:53:00,78.1,67.8,30.31,NW,315,1.0,6.0,71,0.00,,,0.00,meteohub,2013-06-24 20:53:00,
2013-06-24 17:02:00,77.0,69.6,30.30,NNW,337,2.0,7.0,78,0.01,,,0.01,meteohub,2013-06-24 21:02:00,
2013-06-24 17:12:00,75.0,68.7,30.28,WNW,292,1.0,7.0,81,0.01,,,0.01,meteohub,2013-06-24 21:12:00,
2013-06-24 17:22:00,75.0,70.2,30.27,NW,315,1.0,5.0,85,0.01,,,0.01,meteohub,2013-06-24 21:22:00,
2013-06-24 17:32:00,75.0,70.2,30.26,South,180,0.0,4.0,85,0.01,,,0.01,meteohub,2013-06-24 21:32:00,
2013-06-24 17:42:00,75.9,69.6,30.26,NW,315,0.0,2.0,81,0.01,,,0.01,meteohub,2013-06-24 21:42:00,
2013-06-24 17:52:00,77.0,68.0,30.26,SW,225,1.0,3.0,74,0.01,,,0.01,meteohub,2013-06-24 21:52:00,
2013-06-24 18:02:00,79.0,70.3,30.26,South,180,1.0,3.0,75,0.00,,,0.01,meteohub,2013-06-24 22:02:00,
2013-06-24 18:12:00,79.0,70.0,30.26,South,180,1.0,2.0,74,0.00,,,0.01,meteohub,2013-06-24 22:12:00,
2013-06-24 18:22:00,79.0,69.6,30.26,NW,315,2.0,2.0,73,0.00,,,0.01,meteohub,2013-06-24 22:22:00,
2013-06-24 18:32:00,79.0,69.6,30.25,South,180,0.0,3.0,73,0.00,,,0.01,meteohub,2013-06-24 22:32:00,
2013-06-24 18:42:00,80.1,68.9,30.25,SW,225,0.0,4.0,69,0.00,,,0.01,meteohub,2013-06-24 22:42:00,
2013-06-24 18:52:00,80.1,68.2,30.25,SW,225,0.0,4.0,67,0.00,,,0.01,meteohub,2013-06-24 22:52:00,
2013-06-24 19:02:00,80.1,68.9,30.25,SW,225,0.0,4.0,69,0.00,,,0.01,meteohub,2013-06-24 23:02:00,
2013-06-24 19:12:00,79.0,68.4,30.25,South,180,1.0,4.0,70,0.00,,,0.01,meteohub,2013-06-24 23:12:00,
2013-06-24 19:22:00,78.1,68.4,30.25,South,180,1.0,2.0,72,0.00,,,0.01,meteohub,2013-06-24 23:22:00,
2013-06-24 19:35:00,78.1,69.1,30.25,SW,225,0.0,2.0,74,0.00,,,0.01,meteohub,2013-06-24 23:35:00,
2013-06-24 19:42:00,77.0,68.0,30.25,SSW,202,2.0,2.0,74,0.00,,,0.01,meteohub,2013-06-24 23:42:00,
2013-06-24 19:52:00,77.0,68.9,30.25,SSW,202,0.0,2.0,76,0.00,,,0.01,meteohub,2013-06-24 23:52:00,
2013-06-24 20:02:00,75.9,67.8,30.25,SSW,202,1.0,3.0,76,0.00,,,0.01,meteohub,2013-06-25 00:02:00,
2013-06-24 20:12:00,75.9,68.5,30.24,South,180,2.0,3.0,78,0.00,,,0.01,meteohub,2013-06-25 00:12:00,
2013-06-24 20:22:00,75.9,68.2,30.24,NE,45,0.0,2.0,77,0.00,,,0.01,meteohub,2013-06-25 00:22:00,
2013-06-24 20:32:00,75.0,67.3,30.24,SSE,157,0.0,2.0,77,0.00,,,0.01,meteohub,2013-06-25 00:32:00,
2013-06-24 20:42:00,75.0,68.0,30.24,SSE,157,1.0,2.0,79,0.00,,,0.01,meteohub,2013-06-25 00:42:00,
2013-06-24 20:52:00,73.9,67.1,30.23,SE,135,2.0,2.0,79,0.00,,,0.01,meteohub,2013-06-25 00:52:00,
2013-06-24 21:02:00,73.9,67.5,30.22,SW,225,0.0,2.0,80,0.00,,,0.01,meteohub,2013-06-25 01:02:00,
2013-06-24 21:12:00,73.9,67.8,30.22,SW,225,2.0,2.0,81,0.00,,,0.01,meteohub,2013-06-25 01:12:00,
2013-06-24 21:23:00,73.9,68.2,30.22,SSW,202,2.0,2.0,82,0.00,,,0.01,meteohub,2013-06-25 01:23:00,
2013-06-24 21:32:00,73.0,67.3,30.22,South,180,1.0,2.0,82,0.00,,,0.01,meteohub,2013-06-25 01:32:00,
2013-06-24 21:45:00,73.0,67.3,30.22,SSW,202,1.0,2.0,82,0.00,,,0.01,meteohub,2013-06-25 01:45:00,
2013-06-24 21:52:00,73.0,67.3,30.22,South,180,0.0,2.0,82,0.00,,,0.01,meteohub,2013-06-25 01:52:00,
2013-06-24 22:02:00,73.0,67.3,30.22,SSW,202,0.0,2.0,82,0.00,,,0.01,meteohub,2013-06-25 02:02:00,
2013-06-24 22:12:00,73.0,67.6,30.22,South,180,1.0,2.0,83,0.00,,,0.01,meteohub,2013-06-25 02:12:00,
2013-06-24 22:22:00,73.0,67.6,30.22,South,180,0.0,2.0,83,0.00,,,0.01,meteohub,2013-06-25 02:22:00,
2013-06-24 22:32:00,73.0,67.6,30.22,SW,225,1.0,2.0,83,0.00,,,0.01,meteohub,2013-06-25 02:32:00,
2013-06-24 22:42:00,72.0,66.9,30.23,SW,225,1.0,2.0,84,0.00,,,0.01,meteohub,2013-06-25 02:42:00,
2013-06-24 22:52:00,72.0,67.3,30.23,SSW,202,0.0,2.0,85,0.00,,,0.01,meteohub,2013-06-25 02:52:00,
2013-06-24 23:05:00,72.0,67.5,30.23,SSW,202,0.0,2.0,86,0.00,,,0.01,meteohub,2013-06-25 03:05:00,
2013-06-24 23:12:00,72.0,67.5,30.23,SSW,202,0.0,2.0,86,0.00,,,0.01,meteohub,2013-06-25 03:12:00,
2013-06-24 23:22:00,72.0,68.2,30.23,SW,225,0.0,2.0,88,0.00,,,0.01,meteohub,2013-06-25 03:22:00,
2013-06-24 23:35:00,72.0,68.2,30.23,SW,225,0.0,2.0,88,0.00,,,0.01,meteohub,2013-06-25 03:35:00,
2013-06-24 23:42:00,72.0,68.5,30.22,South,180,1.0,2.0,89,0.00,,,0.01,meteohub,2013-06-25 03:42:00,
2013-06-24 23:55:00,71.1,68.0,30.22,South,180,0.0,2.0,90,0.00,,,0.01,meteohub,2013-06-25 03:55:00,